createdAt,value
2024-02-19T00:02:01.249Z,71.52
2024-02-19T00:05:07.498Z,72.26
2024-02-19T00:08:11.497Z,72.70
2024-02-19T00:11:16.066Z,71.60
2024-02-19T00:14:19.886Z,71.24
2024-02-19T00:17:23.566Z,71.29
2024-02-19T00:20:29.662Z,73.40
2024-02-19T00:23:37.040Z,71.72
2024-02-19T00:26:40.813Z,72.40
2024-02-19T00:29:46.101Z,70.97
2024-02-19T00:32:50.039Z,71.55
2024-02-19T00:35:55.532Z,72.09
2024-02-19T00:38:59.076Z,72.90
2024-02-19T00:42:03.241Z,73.28
2024-02-19T00:45:08.773Z,73.19
2024-02-19T00:48:13.089Z,75.34
2024-02-19T00:51:18.194Z,72.96
2024-02-19T00:54:21.841Z,74.77
2024-02-19T00:57:25.495Z,75.23
2024-02-19T01:00:29.148Z,74.02
2024-02-19T01:03:32.839Z,72.98
2024-02-19T01:06:37.928Z,73.39
2024-02-19T01:09:41.625Z,72.51
2024-02-19T01:12:45.228Z,72.01
2024-02-19T01:15:48.962Z,72.05
2024-02-19T01:18:53.228Z,72.32
2024-02-19T01:21:58.605Z,72.00
2024-02-19T01:25:02.479Z,72.32
2024-02-19T01:28:08.657Z,72.24
2024-02-19T01:31:12.393Z,72.85
2024-02-19T01:34:17.481Z,73.72
2024-02-19T01:37:22.984Z,73.79
2024-02-19T01:40:26.673Z,73.44
2024-02-19T01:43:30.310Z,73.60
2024-02-19T01:46:35.168Z,74.22
2024-02-19T01:49:39.716Z,74.33
2024-02-19T01:52:46.012Z,74.93
2024-02-19T01:55:50.749Z,73.62
2024-02-19T01:58:55.315Z,74.58
2024-02-19T02:01:59.036Z,75.20
2024-02-19T02:05:03.499Z,74.21
2024-02-19T02:08:09.233Z,74.68
2024-02-19T02:11:13.363Z,73.53
2024-02-19T02:14:20.938Z,74.48
2024-02-19T02:17:25.040Z,73.67
2024-02-19T02:20:28.784Z,74.20
2024-02-19T02:23:35.480Z,74.03
2024-02-19T02:26:42.393Z,75.28
2024-02-19T02:29:46.427Z,74.11
2024-02-19T02:32:54.594Z,74.78
2024-02-19T02:35:58.400Z,74.31
2024-02-19T02:39:02.646Z,73.90
2024-02-19T02:42:08.583Z,74.20
2024-02-19T02:45:12.962Z,73.46
2024-02-19T02:48:16.918Z,74.03
2024-02-19T02:51:22.005Z,74.16
2024-02-19T02:54:25.629Z,74.53
2024-02-19T02:57:30.759Z,73.99
2024-02-19T03:00:44.427Z,74.49
2024-02-19T03:03:49.138Z,74.13
2024-02-19T03:06:53.209Z,74.88
2024-02-19T03:10:00.606Z,76.38
2024-02-19T03:13:06.533Z,75.34
2024-02-19T03:16:10.560Z,74.92
2024-02-19T03:20:10.928Z,74.55
2024-02-19T03:27:31.811Z,74.54
2024-02-19T03:30:35.564Z,73.73
2024-02-19T03:33:40.051Z,75.11
2024-02-19T03:36:47.544Z,73.79
2024-02-19T03:39:51.288Z,73.92
2024-02-19T03:42:56.818Z,74.50
2024-02-19T03:46:02.210Z,74.16
2024-02-19T03:49:06.211Z,73.85
2024-02-19T03:52:10.030Z,73.45
2024-02-19T03:55:13.851Z,73.08
2024-02-19T03:58:19.154Z,73.50
2024-02-19T04:01:22.913Z,73.49
2024-02-19T04:04:26.617Z,72.72
2024-02-19T04:07:30.259Z,73.83
2024-02-19T04:10:33.937Z,72.78
2024-02-19T04:13:39.046Z,72.62
2024-02-19T04:16:44.348Z,72.55
2024-02-19T04:19:48.950Z,73.14
2024-02-19T04:22:55.662Z,73.50
2024-02-19T04:25:59.800Z,72.54
2024-02-19T04:29:05.084Z,72.59
2024-02-19T04:32:08.703Z,72.55
2024-02-19T04:35:12.810Z,71.76
2024-02-19T04:38:16.737Z,73.50
2024-02-19T04:41:20.464Z,71.77
2024-02-19T04:44:25.568Z,72.00
2024-02-19T04:47:29.232Z,71.07
2024-02-19T04:50:32.875Z,70.34
2024-02-19T04:53:36.480Z,70.32
2024-02-19T04:56:40.080Z,70.98
2024-02-19T04:59:45.277Z,71.27
2024-02-19T05:02:49.444Z,69.73
2024-02-19T05:05:53.146Z,71.76
2024-02-19T05:08:56.949Z,70.75
2024-02-19T05:12:00.807Z,70.75
2024-02-19T05:15:06.963Z,71.06
2024-02-19T05:18:10.746Z,71.49
2024-02-19T05:21:15.313Z,70.32
2024-02-19T05:24:19.414Z,70.80
2024-02-19T05:27:25.316Z,71.38
2024-02-19T05:30:31.425Z,71.56
2024-02-19T05:33:35.243Z,71.72
2024-02-19T05:36:39.495Z,72.09
2024-02-19T05:39:43.539Z,71.12
2024-02-19T05:42:47.638Z,70.64
2024-02-19T05:45:54.332Z,71.01
2024-02-19T05:48:58.118Z,70.68
2024-02-19T05:52:01.878Z,70.46
2024-02-19T05:55:06.268Z,71.09
2024-02-19T05:58:10.014Z,71.71
2024-02-19T06:01:15.247Z,71.84
2024-02-19T06:04:19.086Z,70.89
2024-02-19T06:07:22.744Z,69.64
2024-02-19T06:10:27.626Z,70.96
2024-02-19T06:13:31.507Z,70.34
2024-02-19T06:16:36.613Z,71.15
2024-02-19T06:19:42.442Z,70.67
2024-02-19T06:22:46.464Z,70.84
2024-02-19T06:25:50.092Z,71.46
2024-02-19T06:28:53.745Z,70.82
2024-02-19T06:31:58.831Z,70.75
2024-02-19T06:35:02.682Z,70.09
2024-02-19T06:38:07.271Z,69.97
2024-02-19T06:41:10.861Z,69.38
2024-02-19T06:44:14.704Z,71.00
2024-02-19T06:47:19.901Z,69.26
2024-02-19T06:50:23.684Z,69.67
2024-02-19T06:53:33.151Z,69.44
2024-02-19T06:56:37.090Z,69.09
2024-02-19T06:59:40.710Z,68.67
2024-02-19T07:02:45.776Z,68.60
2024-02-19T07:05:49.421Z,70.06
2024-02-19T07:08:53.140Z,69.26
2024-02-19T07:11:56.862Z,68.23
2024-02-19T07:15:00.866Z,67.85
2024-02-19T07:18:07.408Z,67.88
2024-02-19T07:21:11.630Z,67.52
2024-02-19T07:24:15.484Z,68.36
2024-02-19T07:27:19.301Z,67.50
2024-02-19T07:30:22.972Z,66.57
2024-02-19T07:33:29.983Z,67.25
2024-02-19T07:36:33.830Z,66.76
2024-02-19T07:39:40.614Z,67.94
2024-02-19T07:42:44.423Z,67.10
2024-02-19T07:45:48.284Z,67.77
2024-02-19T07:48:53.458Z,66.57
2024-02-19T07:51:57.301Z,64.93
2024-02-19T07:55:01.059Z,64.96
2024-02-19T07:58:04.910Z,65.33
2024-02-19T08:01:09.055Z,66.29
2024-02-19T08:04:14.246Z,65.73
2024-02-19T08:07:18.049Z,67.41
2024-02-19T08:10:21.841Z,65.77
2024-02-19T08:13:26.035Z,67.07
2024-02-19T08:16:30.037Z,67.81
2024-02-19T08:19:35.929Z,66.05
2024-02-19T08:22:40.117Z,65.40
2024-02-19T08:25:44.858Z,65.05
2024-02-19T08:28:51.801Z,66.93
2024-02-19T08:31:55.556Z,63.79
2024-02-19T08:35:00.688Z,63.65
2024-02-19T08:38:05.698Z,63.22
2024-02-19T08:41:09.337Z,64.60
2024-02-19T08:44:13.028Z,65.55
2024-02-19T08:47:16.791Z,66.21
2024-02-19T08:50:21.936Z,65.59
2024-02-19T08:53:25.660Z,64.54
2024-02-19T08:56:29.395Z,64.77
2024-02-19T08:59:33.031Z,64.20
2024-02-19T09:02:37.451Z,65.25
2024-02-19T09:05:42.495Z,64.58
2024-02-19T09:08:47.622Z,64.74
2024-02-19T09:11:51.743Z,65.13
2024-02-19T09:14:56.527Z,65.94
2024-02-19T09:18:00.400Z,64.71
2024-02-19T09:21:06.952Z,66.34
2024-02-19T09:24:10.703Z,63.48
2024-02-19T09:27:15.441Z,63.31
2024-02-19T09:30:19.648Z,62.26
2024-02-19T09:33:23.379Z,62.25
2024-02-19T09:36:28.617Z,63.33
2024-02-19T09:39:32.777Z,63.30
2024-02-19T09:42:37.607Z,63.33
2024-02-19T09:45:44.494Z,62.59
2024-02-19T09:48:52.654Z,61.89
2024-02-19T09:52:04.100Z,62.87
2024-02-19T09:55:10.679Z,61.60
2024-02-19T09:58:14.317Z,61.62
2024-02-19T10:01:18.523Z,62.61
2024-02-19T10:04:22.712Z,61.54
2024-02-19T10:07:28.043Z,62.23
2024-02-19T10:10:39.353Z,60.96
2024-02-19T10:13:52.649Z,59.70
2024-02-19T10:17:23.545Z,61.03
2024-02-19T10:20:30.421Z,61.88
2024-02-19T10:23:35.527Z,61.82
2024-02-19T10:26:39.206Z,57.84
2024-02-19T10:29:42.919Z,58.25
2024-02-19T10:32:47.767Z,60.70
2024-02-19T10:35:51.767Z,58.66
2024-02-19T10:38:56.911Z,60.85
2024-02-19T10:42:00.724Z,61.27
2024-02-19T10:45:04.733Z,57.82
2024-02-19T10:48:10.127Z,59.33
2024-02-19T10:51:18.985Z,61.48
2024-02-19T10:54:24.085Z,59.66
2024-02-19T10:57:31.603Z,57.07
2024-02-19T11:00:35.606Z,58.25
2024-02-19T11:03:46.850Z,58.41
2024-02-19T11:06:52.392Z,58.98
2024-02-19T11:09:59.666Z,58.44
2024-02-19T11:13:07.963Z,59.83
2024-02-19T11:16:18.844Z,58.36
2024-02-19T11:19:24.314Z,59.69
2024-02-19T11:22:32.060Z,59.38
2024-02-19T11:25:37.547Z,59.13
2024-02-19T11:28:41.318Z,58.86
2024-02-19T11:31:45.439Z,58.99
2024-02-19T11:34:49.151Z,60.83
2024-02-19T11:37:52.866Z,60.90
2024-02-19T11:40:59.070Z,60.03
2024-02-19T11:44:02.903Z,60.36
2024-02-19T11:47:07.160Z,59.29
2024-02-19T11:50:16.513Z,60.38
2024-02-19T11:53:20.357Z,59.29
2024-02-19T11:56:25.479Z,57.15
2024-02-19T11:59:29.288Z,59.28
2024-02-19T12:02:32.922Z,57.19
2024-02-19T12:05:36.652Z,57.29
2024-02-19T12:08:40.737Z,57.50
2024-02-19T12:11:48.534Z,57.50
2024-02-19T12:14:53.053Z,58.96
2024-02-19T12:17:58.665Z,58.38
2024-02-19T12:21:09.640Z,58.31
2024-02-19T12:24:14.120Z,58.12
2024-02-19T12:27:19.529Z,58.26
2024-02-19T12:30:23.992Z,59.50
2024-02-19T12:33:28.347Z,60.36
2024-02-19T12:36:32.147Z,60.76
2024-02-19T12:39:35.908Z,60.78
2024-02-19T12:42:41.118Z,61.59
2024-02-19T12:45:45.027Z,62.80
2024-02-19T12:48:50.442Z,62.88
2024-02-19T12:51:55.077Z,62.87
2024-02-19T12:55:22.969Z,62.97
2024-02-19T12:58:31.092Z,62.82
2024-02-19T13:01:43.219Z,62.35
2024-02-19T13:04:48.887Z,62.58
2024-02-19T13:07:52.822Z,62.11
2024-02-19T13:10:56.849Z,61.07
2024-02-19T13:14:04.170Z,60.50
2024-02-19T13:17:15.265Z,60.61
2024-02-19T13:20:20.917Z,59.91
2024-02-19T13:23:24.780Z,61.27
2024-02-19T13:26:28.532Z,62.36
2024-02-19T13:29:33.732Z,65.10
2024-02-19T13:32:40.146Z,63.92
2024-02-19T13:35:48.649Z,65.70
2024-02-19T13:38:56.098Z,67.96
2024-02-19T13:42:00.318Z,68.41
2024-02-19T13:45:10.219Z,67.18
2024-02-19T13:48:14.500Z,66.42
2024-02-19T13:51:18.320Z,67.64
2024-02-19T13:54:22.336Z,67.46
2024-02-19T13:58:28.556Z,66.77
2024-02-19T14:02:09.730Z,66.52
2024-02-19T14:05:14.587Z,67.19
2024-02-19T14:08:20.079Z,68.21
2024-02-19T14:11:28.529Z,67.52
2024-02-19T14:14:45.455Z,67.98
2024-02-19T14:17:50.668Z,67.17
2024-02-19T14:20:54.452Z,66.69
2024-02-19T14:23:58.289Z,66.45
2024-02-19T14:27:04.201Z,65.50
2024-02-19T14:30:12.816Z,66.01
2024-02-19T14:33:18.284Z,65.69
2024-02-19T14:36:22.325Z,65.55
2024-02-19T14:39:28.271Z,65.16
2024-02-19T14:42:31.974Z,64.62
2024-02-19T14:45:35.644Z,64.72
2024-02-19T14:48:41.872Z,64.61
2024-02-19T14:51:48.815Z,65.50
2024-02-19T14:54:55.478Z,66.01
2024-02-19T14:57:59.343Z,66.16
2024-02-19T15:01:03.297Z,66.56
2024-02-19T15:04:12.178Z,66.97
2024-02-19T15:07:16.255Z,66.94
2024-02-19T15:10:25.501Z,67.61
2024-02-19T15:13:29.313Z,67.77
2024-02-19T15:16:33.293Z,67.65
2024-02-19T15:19:38.595Z,68.23
2024-02-19T15:22:42.302Z,67.94
2024-02-19T15:25:46.110Z,69.10
2024-02-19T15:28:49.936Z,68.51
2024-02-19T15:31:53.610Z,68.02
2024-02-19T15:34:58.804Z,67.17
2024-02-19T15:38:04.173Z,67.90
2024-02-19T15:41:12.432Z,68.49
2024-02-19T15:44:16.262Z,69.88
2024-02-19T15:47:21.016Z,70.37
2024-02-19T15:50:28.943Z,70.29
2024-02-19T15:53:32.705Z,70.25
2024-02-19T15:56:37.103Z,70.56
2024-02-19T15:59:40.825Z,70.71
2024-02-19T16:02:44.582Z,69.62
2024-02-19T16:06:53.757Z,70.58
2024-02-19T16:10:30.984Z,69.76
2024-02-19T16:13:40.090Z,69.45
2024-02-19T16:16:44.328Z,68.96
2024-02-19T16:19:48.838Z,69.09
2024-02-19T16:22:57.139Z,69.73
2024-02-19T16:26:02.806Z,68.64
2024-02-19T16:29:06.817Z,68.28
2024-02-19T16:32:12.137Z,68.31
2024-02-19T16:35:16.305Z,68.09
2024-02-19T16:38:24.599Z,68.21
2024-02-19T16:41:28.392Z,69.15
2024-02-19T16:44:32.076Z,68.77
2024-02-19T16:47:36.849Z,68.20
2024-02-19T16:50:40.830Z,67.82
2024-02-19T16:53:55.212Z,68.21
2024-02-19T16:57:01.324Z,67.85
2024-02-19T17:00:06.948Z,68.07
2024-02-19T17:03:11.027Z,68.17
2024-02-19T17:06:15.743Z,67.64
2024-02-19T17:09:27.411Z,67.58
2024-02-19T17:12:31.486Z,67.51
2024-02-19T17:15:38.263Z,66.88
2024-02-19T17:18:42.302Z,66.53
2024-02-19T17:21:55.770Z,66.82
2024-02-19T17:25:01.925Z,67.36
2024-02-19T17:28:14.121Z,67.80
2024-02-19T17:31:23.461Z,69.57
2024-02-19T17:34:33.090Z,69.01
2024-02-19T17:37:39.753Z,69.38
2024-02-19T17:40:47.169Z,68.99
2024-02-19T17:43:54.882Z,68.31
2024-02-19T17:47:00.063Z,69.91
2024-02-19T17:50:04.557Z,69.14
2024-02-19T17:53:08.718Z,68.32
2024-02-19T17:56:14.982Z,68.29
2024-02-19T17:59:19.986Z,68.61
2024-02-19T18:02:27.015Z,69.52
2024-02-19T18:05:39.174Z,70.31
2024-02-19T18:08:43.493Z,70.05
2024-02-19T18:11:49.015Z,70.13
2024-02-19T18:14:53.847Z,70.19
2024-02-19T18:17:59.070Z,70.48
2024-02-19T18:21:03.315Z,70.40
2024-02-19T18:24:09.609Z,70.98
2024-02-19T18:27:16.830Z,70.77
2024-02-19T18:30:21.559Z,70.55
2024-02-19T18:33:27.063Z,70.59
2024-02-19T18:36:35.970Z,70.11
2024-02-19T18:39:45.744Z,69.67
2024-02-19T18:47:01.316Z,69.49
2024-02-19T18:50:50.263Z,69.55
2024-02-19T18:55:01.902Z,69.37
2024-02-19T18:58:51.275Z,69.80
2024-02-19T19:01:59.330Z,70.00
2024-02-19T19:05:06.290Z,71.02
2024-02-19T19:08:12.495Z,71.03
2024-02-19T19:11:16.703Z,70.97
2024-02-19T19:14:25.454Z,71.17
2024-02-19T19:17:29.778Z,71.89
2024-02-19T19:20:40.095Z,71.86
2024-02-19T19:23:46.612Z,71.59
2024-02-19T19:26:50.771Z,71.85
2024-02-19T19:29:56.146Z,72.63
2024-02-19T19:33:00.487Z,72.34
2024-02-19T19:36:04.412Z,72.43
2024-02-19T19:39:09.711Z,72.49
2024-02-19T19:43:16.916Z,72.39
2024-02-19T19:47:26.307Z,72.81
2024-02-19T19:50:35.948Z,72.23
2024-02-19T19:53:39.594Z,71.37
2024-02-19T19:56:45.478Z,72.64
2024-02-19T19:59:52.235Z,72.20
2024-02-19T20:02:58.333Z,72.55
2024-02-19T20:06:04.219Z,72.54
2024-02-19T20:13:35.423Z,72.60
2024-02-19T20:16:47.194Z,72.39
2024-02-19T20:19:52.701Z,72.94
2024-02-19T20:28:14.598Z,72.03
2024-02-19T20:31:18.623Z,71.08
2024-02-19T20:34:22.429Z,71.49
2024-02-19T20:37:30.355Z,71.84
2024-02-19T20:40:35.085Z,69.33
2024-02-19T20:43:40.171Z,70.55
2024-02-19T20:46:43.871Z,72.00
2024-02-19T20:50:30.298Z,71.06
2024-02-19T20:54:53.325Z,70.73
2024-02-19T21:07:56.118Z,70.81
2024-02-19T21:11:04.886Z,70.84
2024-02-19T21:14:09.975Z,70.59
2024-02-19T21:17:13.859Z,70.99
2024-02-19T21:20:21.608Z,70.35
2024-02-19T21:23:25.880Z,70.76
2024-02-19T21:26:32.049Z,70.84
2024-02-19T21:29:38.455Z,70.84
2024-02-19T21:32:42.129Z,69.79
2024-02-19T21:35:48.920Z,69.67
2024-02-19T21:39:41.492Z,68.98
2024-02-19T21:42:56.698Z,68.44
2024-02-19T21:47:00.521Z,67.26
2024-02-19T21:50:25.206Z,69.09
2024-02-19T21:53:30.435Z,69.03
2024-02-19T21:56:48.777Z,67.87
2024-02-19T22:00:52.746Z,68.04
2024-02-19T22:04:03.596Z,67.49
2024-02-19T22:11:51.128Z,66.89
2024-02-19T22:14:59.260Z,67.46
2024-02-19T22:18:04.008Z,68.89
2024-02-19T22:21:12.620Z,67.54
2024-02-19T22:24:17.265Z,68.11
2024-02-19T22:27:25.738Z,67.37
2024-02-19T22:30:29.419Z,68.46
2024-02-19T22:33:33.349Z,68.75
2024-02-19T22:36:44.950Z,69.22
2024-02-19T22:40:04.302Z,68.77
2024-02-19T22:43:33.703Z,68.63
2024-02-19T22:46:37.423Z,68.57
2024-02-19T22:49:44.478Z,68.91
2024-02-19T22:52:51.085Z,69.45
2024-02-19T22:55:55.180Z,69.67
2024-02-19T22:59:13.991Z,68.43
2024-02-19T23:02:22.653Z,68.30
2024-02-19T23:05:26.749Z,68.81
2024-02-19T23:08:30.433Z,67.77
2024-02-19T23:11:34.137Z,69.09
2024-02-19T23:14:43.538Z,69.94
2024-02-19T23:17:49.301Z,70.33
2024-02-19T23:20:53.411Z,70.35
2024-02-19T23:23:58.140Z,71.25
2024-02-19T23:27:04.384Z,72.91
2024-02-19T23:30:15.218Z,70.98
2024-02-19T23:33:21.679Z,72.42
2024-02-19T23:36:28.687Z,73.82
2024-02-19T23:39:32.335Z,72.13
2024-02-19T23:42:36.172Z,73.40
2024-02-19T23:45:41.595Z,72.64
2024-02-19T23:48:52.766Z,73.64
2024-02-19T23:51:56.551Z,73.83
2024-02-19T23:55:05.493Z,74.19
2024-02-19T23:58:12.714Z,74.65
